createdAt,value
2022-09-16T00:00:32.008Z,27.46
2022-09-16T00:03:39.870Z,27.36
2022-09-16T00:06:46.419Z,27.20
2022-09-16T00:10:17.141Z,26.92
2022-09-16T00:13:22.568Z,26.60
2022-09-16T00:16:40.868Z,26.44
2022-09-16T00:19:46.213Z,26.29
2022-09-16T00:23:08.570Z,26.22
2022-09-16T00:26:16.283Z,26.16
2022-09-16T00:29:24.801Z,26.06
2022-09-16T00:32:32.360Z,26.01
2022-09-16T00:35:42.513Z,25.92
2022-09-16T00:38:56.800Z,25.86
2022-09-16T00:42:02.099Z,25.87
2022-09-16T00:45:22.115Z,25.88
2022-09-16T00:49:13.687Z,25.81
2022-09-16T00:52:33.777Z,25.79
2022-09-16T00:55:46.948Z,25.79
2022-09-16T00:59:03.379Z,25.74
2022-09-16T01:02:16.374Z,25.73
2022-09-16T01:05:45.359Z,25.70
2022-09-16T01:12:43.869Z,25.65
2022-09-16T01:16:02.626Z,25.57
2022-09-16T01:19:32.378Z,25.59
2022-09-16T01:22:46.084Z,25.56
2022-09-16T01:26:03.195Z,25.57
2022-09-16T01:29:23.028Z,25.56
2022-09-16T01:32:34.700Z,25.54
2022-09-16T01:35:45.641Z,25.52
2022-09-16T01:38:58.121Z,25.56
2022-09-16T01:42:09.177Z,25.62
2022-09-16T01:45:18.601Z,25.62
2022-09-16T01:48:27.645Z,25.66
2022-09-16T01:51:36.548Z,25.71
2022-09-16T01:54:42.793Z,25.76
2022-09-16T01:57:52.041Z,25.86
2022-09-16T02:01:00.569Z,25.96
2022-09-16T02:04:08.767Z,26.09
2022-09-16T02:07:17.102Z,26.21
2022-09-16T02:10:29.449Z,26.29
2022-09-16T02:13:36.168Z,26.36
2022-09-16T02:16:44.157Z,26.49
2022-09-16T02:19:53.770Z,26.56
2022-09-16T02:23:01.022Z,26.58
2022-09-16T02:26:06.870Z,26.59
2022-09-16T02:29:15.000Z,26.63
2022-09-16T02:32:21.616Z,26.71
2022-09-16T02:35:29.329Z,26.76
2022-09-16T02:38:36.495Z,26.80
2022-09-16T02:41:42.611Z,26.80
2022-09-16T02:44:48.310Z,26.79
2022-09-16T02:47:59.497Z,26.77
2022-09-16T02:51:12.697Z,26.80
2022-09-16T02:54:21.172Z,26.81
2022-09-16T02:57:27.212Z,26.78
2022-09-16T03:00:34.827Z,26.75
2022-09-16T03:03:40.670Z,26.75
2022-09-16T03:06:47.404Z,26.70
2022-09-16T03:09:52.669Z,26.66
2022-09-16T03:13:03.667Z,26.64
2022-09-16T03:16:13.950Z,26.63
2022-09-16T03:19:22.689Z,26.61
2022-09-16T03:22:37.391Z,26.57
2022-09-16T03:25:47.750Z,26.52
2022-09-16T03:28:59.704Z,26.51
2022-09-16T03:32:09.319Z,26.55
2022-09-16T03:35:18.559Z,26.57
2022-09-16T03:38:25.661Z,26.57
2022-09-16T03:41:32.909Z,26.52
2022-09-16T03:53:25.231Z,26.45
2022-09-16T03:56:31.012Z,26.48
2022-09-16T03:59:35.884Z,26.45
2022-09-16T04:02:52.143Z,26.45
2022-09-16T04:06:08.911Z,26.36
2022-09-16T04:09:16.923Z,26.38
2022-09-16T04:12:30.012Z,26.36
2022-09-16T04:15:37.919Z,26.37
2022-09-16T04:18:43.441Z,26.38
2022-09-16T04:21:48.482Z,26.41
2022-09-16T04:24:55.388Z,26.45
2022-09-16T04:28:00.662Z,26.47
2022-09-16T04:31:14.789Z,26.46
2022-09-16T04:34:34.147Z,26.46
2022-09-16T04:37:39.389Z,26.46
2022-09-16T04:40:51.905Z,26.44
2022-09-16T04:44:12.169Z,26.49
2022-09-16T04:47:17.583Z,26.61
2022-09-16T04:50:22.589Z,26.77
2022-09-16T04:53:27.917Z,26.94
2022-09-16T04:56:34.744Z,27.11
2022-09-16T04:59:45.597Z,27.27
2022-09-16T05:02:50.854Z,27.51
2022-09-16T05:05:55.910Z,27.76
2022-09-16T05:09:01.500Z,28.01
2022-09-16T05:12:08.946Z,28.26
2022-09-16T05:15:14.206Z,28.40
2022-09-16T09:45:41.370Z,-143.72
2022-09-16T09:48:49.362Z,-143.72
2022-09-16T09:51:58.146Z,-143.72
2022-09-16T09:55:16.312Z,-143.72
2022-09-16T09:58:26.149Z,-143.72
2022-09-16T10:01:31.476Z,-143.72
2022-09-16T10:04:38.591Z,-143.72
2022-09-16T10:07:45.846Z,-143.72
2022-09-16T10:10:53.886Z,-143.72
2022-09-16T10:13:59.925Z,-143.72
2022-09-16T10:17:06.344Z,-143.72
2022-09-16T10:20:28.034Z,-143.72
2022-09-16T10:23:33.580Z,-143.72
2022-09-16T10:26:42.213Z,-143.72
2022-09-16T10:29:47.590Z,-143.72
2022-09-16T10:32:55.424Z,-143.72
2022-09-16T10:36:02.157Z,-143.72
2022-09-16T10:39:07.408Z,-143.72
2022-09-16T10:42:19.738Z,-143.72
2022-09-16T10:45:27.519Z,-143.72
2022-09-16T10:48:34.967Z,-143.72
2022-09-16T10:51:39.981Z,-143.72
2022-09-16T10:54:45.657Z,-143.72
2022-09-16T10:57:52.576Z,-143.72
2022-09-16T11:01:11.819Z,-143.72
2022-09-16T11:04:32.570Z,-143.72
2022-09-16T11:07:41.318Z,-143.72
2022-09-16T11:11:00.382Z,-143.72
2022-09-16T11:14:12.821Z,-143.72
2022-09-16T11:17:26.754Z,-143.72
2022-09-16T11:20:46.679Z,-143.72
2022-09-16T11:24:03.390Z,-143.72
2022-09-16T11:27:14.377Z,-143.72
2022-09-16T11:30:22.458Z,-143.72
2022-09-16T11:33:32.530Z,-143.72
2022-09-16T11:36:54.293Z,-143.72
2022-09-16T11:40:06.210Z,-143.72
2022-09-16T11:43:23.768Z,-143.72
2022-09-16T11:46:35.918Z,-143.72
2022-09-16T11:49:48.879Z,-143.72
2022-09-16T11:53:04.232Z,-143.72
2022-09-16T11:56:14.235Z,-143.72
2022-09-16T11:59:22.957Z,-143.72
2022-09-16T12:02:33.273Z,-143.72
2022-09-16T12:05:44.148Z,-143.72
2022-09-16T12:08:55.872Z,-143.72
2022-09-16T12:12:15.985Z,-143.72
2022-09-16T12:15:24.042Z,-143.72
2022-09-16T12:18:45.225Z,-143.72
2022-09-16T12:21:57.492Z,-143.72
2022-09-16T12:25:10.769Z,-143.72
2022-09-16T12:28:18.923Z,-143.72
2022-09-16T12:31:28.342Z,-143.72
2022-09-16T12:34:37.545Z,-143.72
2022-09-16T12:37:46.690Z,-143.72
2022-09-16T12:41:10.081Z,-143.72
2022-09-16T12:44:35.717Z,-143.72
2022-09-16T12:47:56.070Z,-143.72
2022-09-16T12:51:09.580Z,-143.72
2022-09-16T12:54:32.099Z,-143.72
2022-09-16T12:57:49.148Z,-143.72
2022-09-16T13:00:56.989Z,-143.72
2022-09-16T13:04:04.368Z,-143.72
2022-09-16T13:07:20.427Z,-143.72
2022-09-16T13:10:46.833Z,-143.72
2022-09-16T13:13:56.103Z,-143.72
2022-09-16T13:17:02.821Z,-143.72
2022-09-16T13:20:14.563Z,-143.72
2022-09-16T13:23:22.960Z,-143.72
2022-09-16T13:26:38.957Z,-143.72
2022-09-16T13:29:44.976Z,-143.72
2022-09-16T13:32:58.888Z,-143.72
2022-09-16T13:36:18.735Z,-143.72
2022-09-16T13:39:32.800Z,-143.72
2022-09-16T13:42:38.180Z,-143.72
2022-09-16T13:45:44.614Z,-143.72
2022-09-16T13:48:52.431Z,-143.72
2022-09-16T13:51:57.589Z,-143.72
2022-09-16T13:55:10.403Z,-143.72
2022-09-16T13:58:20.576Z,-143.72
2022-09-16T14:01:48.779Z,-143.72
2022-09-16T14:05:13.524Z,-143.72
2022-09-16T14:08:24.283Z,-143.72
2022-09-16T14:11:35.697Z,-143.72
2022-09-16T14:14:49.118Z,-143.72
2022-09-16T14:17:57.361Z,-143.72
2022-09-16T14:21:03.177Z,-143.72
2022-09-16T14:24:08.999Z,-143.72
2022-09-16T14:27:22.824Z,-143.72
2022-09-16T14:30:27.966Z,-143.72
2022-09-16T14:33:34.509Z,-143.72
2022-09-16T14:36:41.234Z,-143.72
2022-09-16T14:39:46.253Z,-143.72
2022-09-16T14:42:54.863Z,-143.72
2022-09-16T14:46:01.215Z,-143.72
2022-09-16T14:49:06.217Z,-143.72
2022-09-16T14:52:18.792Z,-143.72
2022-09-16T14:55:24.835Z,-143.72
2022-09-16T14:58:33.418Z,-143.72
2022-09-16T15:01:39.130Z,-143.72
2022-09-16T15:04:46.821Z,-143.72
2022-09-16T15:08:12.677Z,-143.72
2022-09-16T15:11:45.950Z,-143.72
2022-09-16T15:14:48.151Z,-143.72
2022-09-16T15:17:57.848Z,-143.72
2022-09-16T15:21:07.252Z,-143.72
2022-09-16T15:24:18.272Z,-143.72
2022-09-16T15:27:24.898Z,-143.72
2022-09-16T15:30:31.529Z,-143.72
2022-09-16T15:33:37.978Z,-143.72
2022-09-16T15:36:43.842Z,-143.72
2022-09-16T15:39:48.909Z,-143.72
2022-09-16T15:43:03.322Z,-143.72
2022-09-16T15:46:18.207Z,-143.72
2022-09-16T15:49:25.941Z,-143.72
2022-09-16T15:52:33.967Z,-143.72
2022-09-16T15:55:42.163Z,-143.72
2022-09-16T15:58:48.615Z,-143.72
2022-09-16T16:01:58.430Z,-143.72
2022-09-16T16:05:08.014Z,-143.72
2022-09-16T16:08:33.590Z,-143.72
2022-09-16T16:11:41.905Z,-143.72
2022-09-16T16:14:47.914Z,-143.72
2022-09-16T16:17:54.161Z,-143.72
2022-09-16T16:20:59.369Z,-143.72
2022-09-16T16:24:04.509Z,-143.72
2022-09-16T16:27:11.331Z,-143.72
2022-09-16T16:30:16.377Z,-143.72
2022-09-16T16:33:21.533Z,-143.72
2022-09-16T16:36:26.649Z,-143.72
2022-09-16T16:39:31.947Z,-143.72
2022-09-16T16:42:42.929Z,-143.72
2022-09-16T16:45:54.446Z,-143.72
2022-09-16T16:49:00.078Z,-143.72
2022-09-16T16:52:06.282Z,-143.72
2022-09-16T16:55:11.750Z,-143.72
2022-09-16T16:58:18.960Z,-143.72
2022-09-16T17:01:24.760Z,-143.72
2022-09-16T17:04:30.093Z,-143.72
2022-09-16T17:07:35.848Z,-143.72
2022-09-16T17:10:43.450Z,-143.72
2022-09-16T17:13:51.394Z,-143.72
2022-09-16T17:16:57.033Z,-143.72
2022-09-16T17:20:02.443Z,-143.72
2022-09-16T17:23:07.724Z,-143.72
2022-09-16T17:26:13.481Z,-143.72
2022-09-16T17:29:20.137Z,-143.72
2022-09-16T17:32:29.864Z,-143.72
2022-09-16T17:35:35.218Z,-143.72
2022-09-16T17:38:43.288Z,-143.72
2022-09-16T17:41:49.525Z,-143.72
2022-09-16T17:44:56.487Z,-143.72
2022-09-16T17:48:02.013Z,-143.72
2022-09-16T17:51:07.641Z,-143.72
2022-09-16T17:54:13.951Z,-143.72
2022-09-16T17:57:20.459Z,-143.72
2022-09-16T18:00:27.678Z,-143.72
2022-09-16T18:03:33.223Z,-143.72
2022-09-16T18:06:41.772Z,-143.72
2022-09-16T18:09:47.466Z,-143.72
2022-09-16T18:12:53.605Z,-143.72
2022-09-16T18:16:04.591Z,-143.72
2022-09-16T18:19:10.001Z,-143.72
2022-09-16T18:22:14.973Z,-143.72
2022-09-16T18:25:20.407Z,-143.72
2022-09-16T18:28:26.594Z,-143.72
2022-09-16T18:31:35.043Z,-143.72
2022-09-16T18:34:40.386Z,-143.72
2022-09-16T18:37:46.169Z,-143.72
2022-09-16T18:41:01.511Z,-143.72
2022-09-16T18:44:13.559Z,-143.72
2022-09-16T18:47:37.799Z,-143.72
2022-09-16T18:50:45.326Z,-143.72
2022-09-16T18:53:58.191Z,-143.72
2022-09-16T18:57:11.662Z,-143.72
2022-09-16T19:03:44.635Z,-143.72
2022-09-16T19:07:17.471Z,-143.72
2022-09-16T19:10:41.880Z,-143.72
2022-09-16T19:13:49.359Z,-143.72
2022-09-16T19:17:21.430Z,-143.72
2022-09-16T19:20:41.216Z,-143.72
2022-09-16T19:23:50.679Z,-143.72
2022-09-16T19:26:56.754Z,-143.72
2022-09-16T19:30:03.522Z,-143.72
2022-09-16T19:33:09.109Z,-143.72
2022-09-16T19:36:17.194Z,-143.72
2022-09-16T19:39:23.246Z,-143.72
2022-09-16T19:42:54.914Z,-143.72
2022-09-16T19:46:28.683Z,-143.72
2022-09-16T19:49:34.654Z,-143.72
2022-09-16T19:52:42.090Z,-143.72
2022-09-16T19:55:48.024Z,-143.72
2022-09-16T19:59:15.081Z,-143.72
2022-09-16T20:02:31.755Z,-143.72
2022-09-16T20:05:37.962Z,-143.72
2022-09-16T20:08:46.703Z,-143.72
2022-09-16T20:11:54.186Z,-143.72
2022-09-16T20:15:08.446Z,-143.72
2022-09-16T20:18:20.868Z,-143.72
2022-09-16T20:21:35.204Z,-143.72
2022-09-16T20:25:43.842Z,-143.72
2022-09-16T20:28:54.706Z,-143.72
2022-09-16T20:32:01.027Z,-143.72
2022-09-16T20:35:13.714Z,-143.72
2022-09-16T20:38:19.608Z,-143.72
2022-09-16T20:41:28.196Z,-143.72
2022-09-16T20:44:58.348Z,-143.72
2022-09-16T20:48:11.669Z,-143.72
2022-09-16T20:51:19.221Z,-143.72
2022-09-16T20:54:41.444Z,-143.72
2022-09-16T20:57:49.030Z,-143.72
2022-09-16T21:01:00.940Z,-143.72
2022-09-16T21:04:27.999Z,-143.72
2022-09-16T21:11:46.587Z,-143.72
2022-09-16T21:15:19.624Z,-143.72
2022-09-16T21:19:23.533Z,-143.72
2022-09-16T21:23:13.268Z,-143.72
2022-09-16T21:38:12.494Z,-143.72
2022-09-16T21:41:26.037Z,-143.72
2022-09-16T21:45:35.094Z,-143.72
2022-09-16T22:00:52.549Z,-143.72
2022-09-16T22:04:57.786Z,-143.72
2022-09-16T22:08:38.967Z,-143.72
2022-09-16T22:16:37.662Z,-143.72
